createdAt,value
2018-09-21T00:00:38.179Z,0
2018-09-21T00:01:38.175Z,0
2018-09-21T00:02:38.422Z,0
2018-09-21T00:03:38.159Z,0
2018-09-21T00:04:37.609Z,0
2018-09-21T00:05:37.865Z,0
2018-09-21T00:06:37.875Z,0
2018-09-21T00:07:37.586Z,0
2018-09-21T00:08:38.375Z,0
2018-09-21T00:09:38.360Z,0
2018-09-21T00:10:38.096Z,0
2018-09-21T00:11:38.073Z,0
2018-09-21T00:12:38.066Z,0
2018-09-21T00:13:37.530Z,0
2018-09-21T00:14:37.777Z,0
2018-09-21T00:15:37.761Z,0
2018-09-21T00:16:38.291Z,0
2018-09-21T00:17:38.027Z,0
2018-09-21T00:18:38.006Z,0
2018-09-21T00:19:37.994Z,0
2018-09-21T00:20:38.239Z,0
2018-09-21T00:21:37.707Z,0
2018-09-21T00:22:38.215Z,0
2018-09-21T00:23:37.690Z,0
2018-09-21T00:24:37.406Z,0
2018-09-21T00:25:37.662Z,0
2018-09-21T00:26:37.909Z,0
2018-09-21T00:27:37.377Z,0
2018-09-21T00:28:37.906Z,0
2018-09-21T00:29:37.894Z,0
2018-09-21T00:30:38.159Z,0
2018-09-21T00:31:38.163Z,0
2018-09-21T00:32:37.332Z,0
2018-09-21T00:33:37.330Z,0
2018-09-21T00:34:37.839Z,0
2018-09-21T00:35:37.293Z,0
2018-09-21T00:36:38.084Z,0
2018-09-21T00:37:38.082Z,0
2018-09-21T00:38:37.792Z,0
2018-09-21T00:39:37.247Z,0
2018-09-21T00:40:37.235Z,0
2018-09-21T00:41:37.762Z,0
2018-09-21T00:42:38.019Z,0
2018-09-21T00:43:37.735Z,0
2018-09-21T00:44:37.729Z,0
2018-09-21T00:45:37.455Z,0
2018-09-21T00:46:37.717Z,0
2018-09-21T00:47:37.492Z,0
2018-09-21T00:48:37.097Z,0
2018-09-21T00:49:37.675Z,0
2018-09-21T00:50:37.664Z,0
2018-09-21T00:51:37.670Z,0
2018-09-21T00:52:37.388Z,0
2018-09-21T00:53:37.365Z,0
2018-09-21T00:54:37.876Z,0
2018-09-21T00:55:37.907Z,0
2018-09-21T00:56:37.667Z,0
2018-09-21T00:57:37.065Z,0
2018-09-21T00:58:37.307Z,0
2018-09-21T00:59:37.041Z,0
2018-09-21T01:00:37.303Z,0
2018-09-21T01:01:37.279Z,0
2018-09-21T01:02:37.011Z,0
2018-09-21T01:03:37.263Z,0
2018-09-21T01:04:37.515Z,0
2018-09-21T01:05:37.251Z,0
2018-09-21T01:06:37.769Z,0
2018-09-21T01:07:36.960Z,0
2018-09-21T01:08:37.211Z,0
2018-09-21T01:09:37.209Z,0
2018-09-21T01:10:37.717Z,0
2018-09-21T01:11:37.706Z,0
2018-09-21T01:12:37.700Z,0
2018-09-21T01:13:37.424Z,0
2018-09-21T01:14:36.624Z,0
2018-09-21T01:15:37.138Z,0
2018-09-21T01:16:37.651Z,0
2018-09-21T01:17:37.107Z,0
2018-09-21T01:18:37.361Z,0
2018-09-21T01:19:37.387Z,0
2018-09-21T01:20:37.343Z,0
2018-09-21T01:21:37.330Z,0
2018-09-21T01:22:37.054Z,0
2018-09-21T01:23:37.311Z,0
2018-09-21T01:24:37.302Z,0
2018-09-21T01:25:37.282Z,0
2018-09-21T01:26:37.275Z,0
2018-09-21T01:27:37.008Z,0
2018-09-21T01:28:36.990Z,0
2018-09-21T01:29:36.984Z,0
2018-09-21T01:30:37.252Z,0
2018-09-21T01:31:36.964Z,0
2018-09-21T01:32:37.225Z,0
2018-09-21T01:33:37.536Z,0
2018-09-21T01:34:36.965Z,0
2018-09-21T01:35:37.217Z,0
2018-09-21T01:36:36.993Z,0
2018-09-21T01:37:36.638Z,0
2018-09-21T01:38:37.157Z,0
2018-09-21T01:39:37.407Z,0
2018-09-21T01:40:36.872Z,0
2018-09-21T01:41:36.855Z,0
2018-09-21T01:42:37.415Z,0
2018-09-21T01:43:36.565Z,0
2018-09-21T01:44:37.349Z,0
2018-09-21T01:45:37.077Z,0
2018-09-21T01:46:37.326Z,0
2018-09-21T01:47:37.045Z,0
2018-09-21T01:48:36.781Z,0
2018-09-21T01:49:37.233Z,0
2018-09-21T01:50:37.306Z,0
2018-09-21T01:51:36.758Z,0
2018-09-21T01:52:36.466Z,0
2018-09-21T01:53:37.252Z,0
2018-09-21T01:54:37.283Z,0
2018-09-21T01:55:36.705Z,0
2018-09-21T01:56:37.244Z,0
2018-09-21T01:57:36.952Z,0
2018-09-21T01:58:36.675Z,0
2018-09-21T01:59:36.667Z,0
2018-09-21T02:00:36.651Z,0
2018-09-21T02:01:36.651Z,0
2018-09-21T02:02:36.889Z,0
2018-09-21T02:03:36.874Z,0
2018-09-21T02:04:37.138Z,0
2018-09-21T02:05:37.172Z,0
2018-09-21T02:06:36.583Z,0
2018-09-21T02:07:36.583Z,0
2018-09-21T02:08:36.058Z,0
2018-09-21T02:09:37.228Z,0
2018-09-21T02:10:36.550Z,0
2018-09-21T02:11:36.791Z,0
2018-09-21T02:12:36.784Z,0
2018-09-21T02:13:36.517Z,0
2018-09-21T02:14:36.769Z,0
2018-09-21T02:15:36.502Z,0
2018-09-21T02:16:36.215Z,0
2018-09-21T02:17:36.561Z,0
2018-09-21T02:18:36.726Z,0
2018-09-21T02:19:36.975Z,0
2018-09-21T02:20:36.708Z,0
2018-09-21T02:21:36.168Z,0
2018-09-21T02:22:36.158Z,0
2018-09-21T02:23:36.404Z,0
2018-09-21T02:24:36.406Z,0
2018-09-21T02:25:36.120Z,0
2018-09-21T02:26:36.636Z,0
2018-09-21T02:27:36.894Z,0
2018-09-21T02:28:35.822Z,0
2018-09-21T02:29:36.083Z,0
2018-09-21T02:30:36.349Z,0
2018-09-21T02:31:36.591Z,0
2018-09-21T02:32:36.589Z,0
2018-09-21T02:33:36.330Z,0
2018-09-21T02:34:36.285Z,0
2018-09-21T02:35:36.575Z,0
2018-09-21T02:36:36.005Z,0
2018-09-21T02:37:36.795Z,0
2018-09-21T02:38:35.986Z,0
2018-09-21T02:39:36.771Z,0
2018-09-21T02:40:36.781Z,0
2018-09-21T02:41:36.364Z,0
2018-09-21T02:42:36.470Z,0
2018-09-21T02:43:36.472Z,0
2018-09-21T02:44:35.942Z,0
2018-09-21T02:45:36.180Z,0
2018-09-21T02:46:36.447Z,0
2018-09-21T02:47:36.418Z,0
2018-09-21T02:48:36.226Z,0
2018-09-21T02:49:36.346Z,0
2018-09-21T02:50:36.395Z,0
2018-09-21T02:51:36.125Z,0
2018-09-21T02:52:36.105Z,0
2018-09-21T02:53:35.838Z,0
2018-09-21T02:54:35.836Z,0
2018-09-21T02:55:36.356Z,0
2018-09-21T02:56:36.063Z,0
2018-09-21T02:57:36.317Z,0
2018-09-21T02:58:35.827Z,0
2018-09-21T02:59:36.353Z,0
2018-09-21T03:00:37.333Z,0
2018-09-21T03:01:36.282Z,0
2018-09-21T03:02:36.000Z,0
2018-09-21T03:03:36.006Z,0
2018-09-21T03:04:36.511Z,0
2018-09-21T03:05:36.518Z,0
2018-09-21T03:06:36.227Z,0
2018-09-21T03:07:36.214Z,0
2018-09-21T03:08:36.470Z,0
2018-09-21T03:09:35.929Z,0
2018-09-21T03:10:36.185Z,0
2018-09-21T03:11:36.448Z,0
2018-09-21T03:12:36.432Z,0
2018-09-21T03:13:35.896Z,0
2018-09-21T03:14:36.140Z,0
2018-09-21T03:15:36.128Z,0
2018-09-21T03:16:36.169Z,0
2018-09-21T03:17:35.879Z,0
2018-09-21T03:18:36.381Z,0
2018-09-21T03:19:36.089Z,0
2018-09-21T03:20:35.822Z,0
2018-09-21T03:21:35.798Z,0
2018-09-21T03:22:36.091Z,0
2018-09-21T03:23:35.252Z,0
2018-09-21T03:24:36.033Z,0
2018-09-21T03:25:36.030Z,0
2018-09-21T03:26:36.024Z,0
2018-09-21T03:27:35.743Z,0
2018-09-21T03:28:35.742Z,0
2018-09-21T03:29:35.988Z,0
2018-09-21T03:30:35.717Z,0
2018-09-21T03:31:36.241Z,0
2018-09-21T03:32:36.251Z,0
2018-09-21T03:33:35.681Z,0
2018-09-21T03:34:35.942Z,0
2018-09-21T03:35:35.674Z,0
2018-09-21T03:36:35.661Z,0
2018-09-21T03:37:35.636Z,0
2018-09-21T03:38:35.367Z,0
2018-09-21T03:39:35.896Z,0
2018-09-21T03:40:35.617Z,0
2018-09-21T03:41:35.604Z,0
2018-09-21T03:42:36.126Z,0
2018-09-21T03:43:35.833Z,0
2018-09-21T03:44:35.089Z,0
2018-09-21T03:45:35.554Z,0
2018-09-21T03:46:36.108Z,0
2018-09-21T03:47:35.796Z,0
2018-09-21T03:48:35.542Z,0
2018-09-21T03:49:35.520Z,0
2018-09-21T03:50:35.252Z,0
2018-09-21T03:51:35.767Z,0
2018-09-21T03:52:36.087Z,0
2018-09-21T03:53:35.753Z,0
2018-09-21T03:54:35.207Z,0
2018-09-21T03:55:35.986Z,0
2018-09-21T03:56:35.464Z,0
2018-09-21T03:57:35.170Z,0
2018-09-21T03:58:35.966Z,0
2018-09-21T03:59:35.694Z,0
2018-09-21T04:00:35.952Z,0
2018-09-21T04:01:35.673Z,0
2018-09-21T04:02:35.651Z,0
2018-09-21T04:03:35.387Z,0
2018-09-21T04:04:35.363Z,0
2018-09-21T04:05:35.353Z,0
2018-09-21T04:06:35.080Z,0
2018-09-21T04:07:35.593Z,0
2018-09-21T04:08:35.865Z,0
2018-09-21T04:09:35.584Z,0
2018-09-21T04:10:35.312Z,0
2018-09-21T04:11:35.294Z,0
2018-09-21T04:12:35.538Z,0
2018-09-21T04:13:35.280Z,0
2018-09-21T04:14:35.275Z,0
2018-09-21T04:15:35.534Z,0
2018-09-21T04:16:35.779Z,0
2018-09-21T04:17:34.966Z,0
2018-09-21T04:18:35.228Z,0
2018-09-21T04:19:35.493Z,0
2018-09-21T04:20:34.939Z,0
2018-09-21T04:21:35.469Z,0
2018-09-21T04:22:35.184Z,0
2018-09-21T04:23:35.448Z,0
2018-09-21T04:24:35.431Z,0
2018-09-21T04:25:35.438Z,0
2018-09-21T04:26:35.404Z,0
2018-09-21T04:27:35.157Z,0
2018-09-21T04:28:35.379Z,0
2018-09-21T04:29:35.367Z,0
2018-09-21T04:30:35.371Z,0
2018-09-21T04:31:35.089Z,0
2018-09-21T04:32:34.813Z,0
2018-09-21T04:33:35.072Z,0
2018-09-21T04:34:35.597Z,0
2018-09-21T04:35:35.043Z,0
2018-09-21T04:36:35.581Z,0
2018-09-21T04:37:35.328Z,0
2018-09-21T04:38:35.284Z,0
2018-09-21T04:39:35.000Z,0
2018-09-21T04:40:35.006Z,0
2018-09-21T04:41:34.985Z,0
2018-09-21T04:42:34.726Z,0
2018-09-21T04:43:34.965Z,0
2018-09-21T04:44:34.690Z,0
2018-09-21T04:45:34.684Z,0
2018-09-21T04:46:35.209Z,0
2018-09-21T04:47:35.465Z,0
2018-09-21T04:48:35.203Z,0
2018-09-21T04:49:35.108Z,0
2018-09-21T04:50:34.915Z,0
2018-09-21T04:51:34.878Z,0
2018-09-21T04:52:35.008Z,0
2018-09-21T04:53:35.126Z,0
2018-09-21T04:54:35.125Z,0
2018-09-21T04:55:34.576Z,0
2018-09-21T04:56:35.087Z,0
2018-09-21T04:57:35.085Z,0
2018-09-21T04:58:34.814Z,0
2018-09-21T04:59:34.805Z,0
2018-09-21T05:00:35.151Z,0
2018-09-21T05:01:34.782Z,0
2018-09-21T05:02:35.032Z,0
2018-09-21T05:03:35.035Z,0
2018-09-21T05:04:34.757Z,0
2018-09-21T05:05:34.491Z,0
2018-09-21T05:06:34.724Z,0
2018-09-21T05:07:35.001Z,0
2018-09-21T05:08:34.456Z,0
2018-09-21T05:09:35.232Z,0
2018-09-21T05:10:34.690Z,0
2018-09-21T05:11:34.950Z,0
2018-09-21T05:12:34.932Z,0
2018-09-21T05:13:34.942Z,0
2018-09-21T05:14:35.188Z,0
2018-09-21T05:15:34.640Z,0
2018-09-21T05:16:34.890Z,0
2018-09-21T05:17:34.897Z,0
2018-09-21T05:18:34.610Z,0
2018-09-21T05:19:35.075Z,0
2018-09-21T05:20:34.859Z,0
2018-09-21T05:21:34.854Z,0
2018-09-21T05:22:34.849Z,0
2018-09-21T05:23:34.842Z,0
2018-09-21T05:24:34.556Z,0
2018-09-21T05:25:34.812Z,0
2018-09-21T05:26:34.802Z,0
2018-09-21T05:27:34.593Z,5
2018-09-21T05:28:34.265Z,5
2018-09-21T05:29:34.782Z,5
2018-09-21T05:30:34.503Z,5
2018-09-21T05:31:34.495Z,5
2018-09-21T05:32:34.754Z,5
2018-09-21T05:33:35.011Z,5
2018-09-21T05:34:35.226Z,5
2018-09-21T05:35:35.021Z,5
2018-09-21T05:36:34.443Z,5
2018-09-21T05:37:34.965Z,5
2018-09-21T05:38:34.697Z,5
2018-09-21T05:39:34.424Z,5
2018-09-21T05:40:34.666Z,5
2018-09-21T05:41:34.404Z,5
2018-09-21T05:42:34.914Z,10
2018-09-21T05:43:34.637Z,10
2018-09-21T05:44:34.626Z,10
2018-09-21T05:45:34.361Z,10
2018-09-21T05:46:33.816Z,10
2018-09-21T05:47:34.599Z,10
2018-09-21T05:48:34.325Z,15
2018-09-21T05:49:34.583Z,15
2018-09-21T05:50:34.317Z,15
2018-09-21T05:51:34.822Z,20
2018-09-21T05:52:34.286Z,20
2018-09-21T05:53:34.537Z,20
2018-09-21T05:54:34.535Z,20
2018-09-21T05:55:34.795Z,20
2018-09-21T05:56:34.779Z,15
2018-09-21T05:57:34.778Z,15
2018-09-21T05:58:34.818Z,15
2018-09-21T05:59:34.509Z,15
2018-09-21T06:00:34.477Z,15
2018-09-21T06:01:34.205Z,10
2018-09-21T06:02:34.657Z,15
2018-09-21T06:03:34.195Z,15
2018-09-21T06:04:34.175Z,15
2018-09-21T06:05:34.173Z,15
2018-09-21T06:06:34.161Z,20
2018-09-21T06:07:33.885Z,25
2018-09-21T06:08:34.412Z,25
2018-09-21T06:09:34.388Z,30
2018-09-21T06:10:34.389Z,30
2018-09-21T06:11:34.374Z,30
2018-09-21T06:12:34.100Z,30
2018-09-21T06:13:34.468Z,30
2018-09-21T06:14:34.616Z,35
2018-09-21T06:15:34.599Z,35
2018-09-21T06:16:34.064Z,30
2018-09-21T06:17:34.591Z,35
2018-09-21T06:18:34.053Z,40
2018-09-21T06:19:35.089Z,45
2018-09-21T06:20:34.289Z,45
2018-09-21T06:21:34.540Z,45
2018-09-21T06:22:44.849Z,45
2018-09-21T06:23:34.259Z,50
2018-09-21T06:24:33.989Z,50
2018-09-21T06:25:34.501Z,50
2018-09-21T06:26:34.528Z,50
2018-09-21T06:27:33.950Z,50
2018-09-21T06:28:34.207Z,50
2018-09-21T06:29:34.469Z,50
2018-09-21T06:30:33.929Z,50
2018-09-21T06:31:34.173Z,50
2018-09-21T06:32:34.177Z,50
2018-09-21T06:33:34.165Z,45
2018-09-21T06:34:33.891Z,50
2018-09-21T06:35:34.146Z,50
2018-09-21T06:36:34.403Z,45
2018-09-21T06:37:34.126Z,45
2018-09-21T06:38:34.381Z,45
2018-09-21T06:39:34.115Z,45
2018-09-21T06:40:34.358Z,45
2018-09-21T06:41:33.878Z,45
2018-09-21T06:42:34.165Z,50
2018-09-21T06:43:33.810Z,55
2018-09-21T06:44:34.134Z,55
2018-09-21T06:45:34.329Z,60
2018-09-21T06:46:34.045Z,65
2018-09-21T06:47:34.367Z,70
2018-09-21T06:48:33.496Z,70
2018-09-21T06:49:33.954Z,70
2018-09-21T06:50:34.010Z,70
2018-09-21T06:51:34.002Z,65
2018-09-21T06:52:33.991Z,60
2018-09-21T06:53:33.714Z,55
2018-09-21T06:54:33.982Z,50
2018-09-21T06:55:33.973Z,50
2018-09-21T06:56:33.946Z,55
2018-09-21T06:57:33.673Z,60
2018-09-21T06:58:33.933Z,65
2018-09-21T06:59:33.653Z,70
2018-09-21T07:00:34.169Z,75
2018-09-21T07:01:34.005Z,75
2018-09-21T07:02:33.897Z,75
2018-09-21T07:03:33.366Z,70
2018-09-21T07:04:33.874Z,60
2018-09-21T07:05:33.860Z,55
2018-09-21T07:06:33.593Z,45
2018-09-21T07:07:33.856Z,45
2018-09-21T07:08:33.861Z,45
2018-09-21T07:09:33.843Z,45
2018-09-21T07:10:33.825Z,45
2018-09-21T07:11:33.807Z,45
2018-09-21T07:12:33.534Z,45
2018-09-21T07:13:33.797Z,45
2018-09-21T07:14:33.257Z,45
2018-09-21T07:15:33.796Z,45
2018-09-21T07:16:33.770Z,45
2018-09-21T07:17:33.748Z,50
2018-09-21T07:18:33.797Z,55
2018-09-21T07:19:33.476Z,55
2018-09-21T07:20:33.475Z,50
2018-09-21T07:21:34.031Z,45
2018-09-21T07:22:33.444Z,45
2018-09-21T07:23:33.702Z,45
2018-09-21T07:24:33.426Z,45
2018-09-21T07:25:33.410Z,45
2018-09-21T07:26:33.667Z,50
2018-09-21T07:27:33.130Z,55
2018-09-21T07:28:33.919Z,60
2018-09-21T07:29:33.907Z,60
2018-09-21T07:30:33.377Z,60
2018-09-21T07:31:33.103Z,65
2018-09-21T07:32:33.617Z,65
2018-09-21T07:33:33.082Z,70
2018-09-21T07:34:33.065Z,75
2018-09-21T07:35:33.854Z,80
2018-09-21T07:36:33.051Z,85
2018-09-21T07:37:33.895Z,85
2018-09-21T07:38:33.609Z,85
2018-09-21T07:39:33.809Z,80
2018-09-21T07:40:33.812Z,75
2018-09-21T07:41:33.531Z,65
2018-09-21T07:42:33.788Z,60
2018-09-21T07:43:33.793Z,50
2018-09-21T07:44:33.326Z,50
2018-09-21T07:45:33.503Z,45
2018-09-21T07:46:33.479Z,45
2018-09-21T07:47:32.999Z,45
2018-09-21T07:48:33.729Z,45
2018-09-21T07:49:33.455Z,50
2018-09-21T07:50:34.157Z,50
2018-09-21T07:51:33.722Z,50
2018-09-21T07:52:33.695Z,50
2018-09-21T07:53:33.165Z,50
2018-09-21T07:54:33.986Z,55
2018-09-21T07:55:33.521Z,60
2018-09-21T07:56:33.666Z,70
2018-09-21T07:57:33.401Z,70
2018-09-21T07:58:32.838Z,70
2018-09-21T07:59:33.364Z,65
2018-09-21T08:00:33.367Z,60
2018-09-21T08:01:33.403Z,60
2018-09-21T08:02:33.636Z,55
2018-09-21T08:03:32.803Z,55
2018-09-21T08:04:33.334Z,55
2018-09-21T08:05:32.781Z,55
2018-09-21T08:06:33.561Z,65
2018-09-21T08:07:33.171Z,70
2018-09-21T08:08:33.280Z,80
2018-09-21T08:09:33.537Z,90
2018-09-21T08:10:32.997Z,90
2018-09-21T08:11:33.514Z,90
2018-09-21T08:12:33.349Z,95
2018-09-21T08:13:33.234Z,100
2018-09-21T08:14:33.229Z,105
2018-09-21T08:15:33.219Z,105
2018-09-21T08:16:32.935Z,105
2018-09-21T08:17:33.209Z,110
2018-09-21T08:18:32.948Z,120
2018-09-21T08:19:33.554Z,125
2018-09-21T08:20:33.178Z,125
2018-09-21T08:21:32.911Z,125
2018-09-21T08:22:33.422Z,125
2018-09-21T08:23:33.429Z,120
2018-09-21T08:24:32.349Z,125
2018-09-21T08:25:32.860Z,140
2018-09-21T08:26:33.297Z,140
2018-09-21T08:27:32.848Z,135
2018-09-21T08:28:33.365Z,135
2018-09-21T08:29:32.826Z,135
2018-09-21T08:30:33.424Z,145
2018-09-21T08:31:32.742Z,140
2018-09-21T08:32:33.336Z,145
2018-09-21T08:33:32.797Z,150
2018-09-21T08:34:32.519Z,155
2018-09-21T08:35:32.241Z,140
2018-09-21T08:36:32.788Z,130
2018-09-21T08:37:32.938Z,130
2018-09-21T08:38:33.297Z,120
2018-09-21T08:39:32.754Z,130
2018-09-21T08:40:32.489Z,115
2018-09-21T08:41:33.255Z,90
2018-09-21T08:42:32.705Z,100
2018-09-21T08:43:32.973Z,105
2018-09-21T08:44:32.698Z,100
2018-09-21T08:45:32.837Z,95
2018-09-21T08:46:32.406Z,75
2018-09-21T08:47:32.403Z,70
2018-09-21T08:48:32.973Z,80
2018-09-21T08:49:32.580Z,80
2018-09-21T08:50:32.633Z,75
2018-09-21T08:51:33.152Z,70
2018-09-21T08:52:32.882Z,70
2018-09-21T08:53:33.139Z,75
2018-09-21T08:54:32.863Z,75
2018-09-21T08:55:32.865Z,65
2018-09-21T08:56:32.853Z,65
2018-09-21T08:57:32.879Z,60
2018-09-21T08:58:32.812Z,60
2018-09-21T08:59:32.808Z,45
2018-09-21T09:00:32.556Z,50
2018-09-21T09:01:32.801Z,50
2018-09-21T09:02:32.272Z,40
2018-09-21T09:03:33.321Z,35
2018-09-21T09:04:32.769Z,35
2018-09-21T09:05:32.490Z,40
2018-09-21T09:06:32.489Z,40
2018-09-21T09:07:32.478Z,35
2018-09-21T09:08:32.458Z,35
2018-09-21T09:09:32.727Z,30
2018-09-21T09:10:32.437Z,30
2018-09-21T09:11:32.697Z,25
2018-09-21T09:12:32.421Z,25
2018-09-21T09:13:31.890Z,30
2018-09-21T09:14:32.390Z,45
2018-09-21T09:15:32.651Z,55
2018-09-21T09:16:32.110Z,50
2018-09-21T09:17:32.366Z,50
2018-09-21T09:18:32.611Z,55
2018-09-21T09:19:32.874Z,45
2018-09-21T09:20:32.602Z,40
2018-09-21T09:21:32.318Z,35
2018-09-21T09:22:32.585Z,55
2018-09-21T09:23:32.566Z,90
2018-09-21T09:24:32.404Z,90
2018-09-21T09:25:32.567Z,85
2018-09-21T09:26:32.954Z,70
2018-09-21T09:27:31.982Z,80
2018-09-21T09:28:32.489Z,100
2018-09-21T09:29:32.746Z,100
2018-09-21T09:30:32.471Z,105
2018-09-21T09:31:31.963Z,105
2018-09-21T09:32:32.709Z,90
2018-09-21T09:33:32.426Z,90
2018-09-21T09:34:32.151Z,85
2018-09-21T09:35:32.418Z,75
2018-09-21T09:36:32.142Z,65
2018-09-21T09:37:32.381Z,70
2018-09-21T09:38:32.102Z,70
2018-09-21T09:39:32.093Z,70
2018-09-21T09:40:32.342Z,70
2018-09-21T09:41:32.595Z,75
2018-09-21T09:42:31.815Z,70
2018-09-21T09:43:31.906Z,65
2018-09-21T09:44:32.549Z,65
2018-09-21T09:45:32.292Z,70
2018-09-21T09:46:32.525Z,75
2018-09-21T09:47:32.251Z,75
2018-09-21T09:48:32.793Z,75
2018-09-21T09:49:32.011Z,70
2018-09-21T09:50:31.690Z,65
2018-09-21T09:51:31.928Z,60
2018-09-21T09:52:32.454Z,60
2018-09-21T09:53:31.631Z,60
2018-09-21T09:54:31.894Z,60
2018-09-21T09:55:31.888Z,60
2018-09-21T09:56:32.121Z,70
2018-09-21T09:57:32.115Z,75
2018-09-21T09:58:31.577Z,80
2018-09-21T09:59:32.078Z,95
2018-09-21T10:00:32.077Z,105
2018-09-21T10:01:32.320Z,105
2018-09-21T10:02:31.776Z,100
2018-09-21T10:03:32.648Z,85
2018-09-21T10:04:32.009Z,75
2018-09-21T10:05:32.004Z,80
2018-09-21T10:06:32.255Z,90
2018-09-21T10:07:32.194Z,105
2018-09-21T10:08:31.962Z,130
2018-09-21T10:09:31.966Z,140
2018-09-21T10:10:31.944Z,135
2018-09-21T10:11:31.868Z,125
2018-09-21T10:12:31.916Z,130
2018-09-21T10:13:31.734Z,135
2018-09-21T10:14:31.337Z,120
2018-09-21T10:15:32.199Z,115
2018-09-21T10:16:32.152Z,105
2018-09-21T10:17:31.566Z,95
2018-09-21T10:18:31.595Z,85
2018-09-21T10:19:32.067Z,90
2018-09-21T10:20:31.601Z,95
2018-09-21T10:21:31.521Z,110
2018-09-21T10:22:31.763Z,120
2018-09-21T10:23:31.759Z,135
2018-09-21T10:24:31.754Z,140
2018-09-21T10:25:31.730Z,140
2018-09-21T10:26:31.715Z,130
2018-09-21T10:27:31.990Z,125
2018-09-21T10:28:33.101Z,110
2018-09-21T10:29:31.398Z,95
2018-09-21T10:30:31.845Z,95
2018-09-21T10:31:31.657Z,95
2018-09-21T10:32:31.350Z,105
2018-09-21T10:33:31.638Z,115
2018-09-21T10:34:31.717Z,115
2018-09-21T10:35:32.060Z,105
2018-09-21T10:36:31.690Z,105
2018-09-21T10:37:31.556Z,120
2018-09-21T10:38:31.540Z,135
2018-09-21T10:39:31.531Z,155
2018-09-21T10:40:32.258Z,165
2018-09-21T10:41:31.229Z,190
2018-09-21T10:42:31.438Z,190
2018-09-21T10:43:31.462Z,185
2018-09-21T10:44:31.765Z,170
2018-09-21T10:45:31.454Z,145
2018-09-21T10:46:31.453Z,135
2018-09-21T10:47:31.158Z,115
2018-09-21T10:48:31.392Z,105
2018-09-21T10:49:31.317Z,115
2018-09-21T10:50:31.109Z,120
2018-09-21T10:51:31.625Z,130
2018-09-21T10:52:31.341Z,150
2018-09-21T10:53:31.321Z,165
2018-09-21T10:54:31.575Z,150
2018-09-21T10:55:31.641Z,130
2018-09-21T10:56:31.312Z,155
2018-09-21T10:57:31.010Z,225
2018-09-21T10:58:31.027Z,280
2018-09-21T10:59:31.508Z,260
2018-09-21T11:00:31.429Z,210
2018-09-21T11:01:31.214Z,170
2018-09-21T11:02:30.681Z,145
2018-09-21T11:03:30.661Z,135
2018-09-21T11:04:31.373Z,140
2018-09-21T11:05:30.636Z,155
2018-09-21T11:06:31.149Z,190
2018-09-21T11:07:30.870Z,225
2018-09-21T11:08:30.858Z,240
2018-09-21T11:09:31.139Z,230
2018-09-21T11:10:31.124Z,225
2018-09-21T11:11:30.843Z,230
2018-09-21T11:12:31.334Z,260
2018-09-21T11:13:30.548Z,270
2018-09-21T11:14:31.303Z,255
2018-09-21T11:15:30.785Z,240
2018-09-21T11:16:30.503Z,265
2018-09-21T11:17:30.475Z,240
2018-09-21T11:18:30.471Z,185
2018-09-21T11:19:31.287Z,150
2018-09-21T11:20:31.227Z,155
2018-09-21T11:21:30.688Z,155
2018-09-21T11:22:30.968Z,150
2018-09-21T11:23:30.672Z,125
2018-09-21T11:24:30.672Z,120
2018-09-21T11:25:30.912Z,140
2018-09-21T11:26:30.885Z,155
2018-09-21T11:27:31.140Z,135
2018-09-21T11:28:30.858Z,130
2018-09-21T11:29:30.320Z,125
2018-09-21T11:30:30.577Z,120
2018-09-21T11:31:30.564Z,135
2018-09-21T11:32:30.837Z,165
2018-09-21T11:33:30.809Z,160
2018-09-21T11:34:30.787Z,155
2018-09-21T11:35:30.778Z,140
2018-09-21T11:36:31.059Z,130
2018-09-21T11:37:30.741Z,130
2018-09-21T11:38:31.009Z,130
2018-09-21T11:39:30.978Z,140
2018-09-21T11:40:30.736Z,160
2018-09-21T11:41:30.966Z,205
2018-09-21T11:42:30.692Z,235
2018-09-21T11:43:30.174Z,285
2018-09-21T11:44:30.144Z,320
2018-09-21T11:45:30.708Z,275
2018-09-21T11:46:30.909Z,220
2018-09-21T11:47:30.942Z,210
2018-09-21T11:48:30.610Z,240
2018-09-21T11:49:30.332Z,215
2018-09-21T11:50:30.376Z,210
2018-09-21T11:51:30.840Z,200
2018-09-21T11:52:30.296Z,240
2018-09-21T11:53:30.551Z,315
2018-09-21T11:54:30.624Z,510
2018-09-21T11:55:30.842Z,465
2018-09-21T11:56:29.977Z,395
2018-09-21T11:57:30.225Z,440
2018-09-21T11:58:30.484Z,330
2018-09-21T11:59:29.960Z,280
2018-09-21T12:00:30.508Z,285
2018-09-21T12:01:30.190Z,285
2018-09-21T12:02:30.460Z,270
2018-09-21T12:03:30.157Z,280
2018-09-21T12:04:30.404Z,270
2018-09-21T12:05:30.411Z,285
2018-09-21T12:06:30.388Z,390
2018-09-21T12:07:30.368Z,400
2018-09-21T12:08:30.096Z,370
2018-09-21T12:09:30.091Z,350
2018-09-21T12:10:30.463Z,500
2018-09-21T12:11:29.797Z,400
2018-09-21T12:12:30.587Z,275
2018-09-21T12:13:30.302Z,290
2018-09-21T12:14:30.580Z,300
2018-09-21T12:15:30.558Z,305
2018-09-21T12:16:30.555Z,245
2018-09-21T12:17:29.732Z,245
2018-09-21T12:18:30.255Z,235
2018-09-21T12:19:29.976Z,240
2018-09-21T12:20:30.240Z,245
2018-09-21T12:21:30.220Z,250
2018-09-21T12:22:30.215Z,260
2018-09-21T12:23:29.928Z,255
2018-09-21T12:24:30.459Z,235
2018-09-21T12:25:29.905Z,205
2018-09-21T12:26:29.901Z,200
2018-09-21T12:27:30.155Z,195
2018-09-21T12:28:29.613Z,170
2018-09-21T12:29:29.862Z,175
2018-09-21T12:30:30.943Z,185
2018-09-21T12:31:29.857Z,210
2018-09-21T12:32:29.829Z,270
2018-09-21T12:33:29.827Z,310
2018-09-21T12:34:29.821Z,245
2018-09-21T12:35:30.324Z,225
2018-09-21T12:36:30.428Z,205
2018-09-21T12:37:30.308Z,215
2018-09-21T12:38:29.842Z,215
2018-09-21T12:39:30.078Z,210
2018-09-21T12:40:29.477Z,255
2018-09-21T12:41:30.260Z,225
2018-09-21T12:42:29.895Z,210
2018-09-21T12:43:29.706Z,185
2018-09-21T12:44:30.075Z,180
2018-09-21T12:45:29.688Z,135
2018-09-21T12:46:30.207Z,100
2018-09-21T12:47:30.195Z,90
2018-09-21T12:48:29.649Z,70
2018-09-21T12:49:29.844Z,65
2018-09-21T12:50:30.336Z,140
2018-09-21T12:51:29.889Z,105
2018-09-21T12:52:29.356Z,55
2018-09-21T12:53:29.600Z,35
2018-09-21T12:54:29.334Z,25
2018-09-21T12:55:29.576Z,25
2018-09-21T12:56:29.643Z,35
2018-09-21T12:57:29.560Z,60
2018-09-21T12:58:31.141Z,100
2018-09-21T12:59:29.871Z,155
2018-09-21T13:00:29.798Z,170
2018-09-21T13:01:29.783Z,170
2018-09-21T13:02:29.268Z,175
2018-09-21T13:03:29.742Z,300
2018-09-21T13:04:29.743Z,175
2018-09-21T13:05:29.726Z,150
2018-09-21T13:06:29.797Z,130
2018-09-21T13:07:29.694Z,150
2018-09-21T13:08:29.690Z,160
2018-09-21T13:09:29.413Z,145
2018-09-21T13:10:29.455Z,145
2018-09-21T13:11:28.853Z,130
2018-09-21T13:12:29.369Z,125
2018-09-21T13:13:29.360Z,135
2018-09-21T13:14:29.895Z,140
2018-09-21T13:15:29.610Z,145
2018-09-21T13:16:29.360Z,140
2018-09-21T13:17:29.576Z,145
2018-09-21T13:18:29.299Z,145
2018-09-21T13:19:29.035Z,160
2018-09-21T13:20:29.803Z,155
2018-09-21T13:21:29.265Z,150
2018-09-21T13:22:29.515Z,155
2018-09-21T13:23:28.983Z,160
2018-09-21T13:24:29.513Z,160
2018-09-21T13:25:29.234Z,160
2018-09-21T13:26:29.492Z,165
2018-09-21T13:27:29.196Z,160
2018-09-21T13:28:29.447Z,170
2018-09-21T13:29:28.905Z,210
2018-09-21T13:30:29.426Z,445
2018-09-21T13:31:29.147Z,260
2018-09-21T13:32:29.366Z,210
2018-09-21T13:33:29.390Z,170
2018-09-21T13:34:29.372Z,180
2018-09-21T13:35:28.572Z,330
2018-09-21T13:36:29.363Z,225
2018-09-21T13:37:29.603Z,315
2018-09-21T13:38:29.600Z,255
2018-09-21T13:39:29.047Z,360
2018-09-21T13:40:29.038Z,255
2018-09-21T13:41:29.552Z,235
2018-09-21T13:42:28.754Z,205
2018-09-21T13:43:29.524Z,200
2018-09-21T13:44:28.989Z,290
2018-09-21T13:45:29.250Z,200
2018-09-21T13:46:29.124Z,205
2018-09-21T13:47:28.958Z,185
2018-09-21T13:48:28.954Z,190
2018-09-21T13:49:28.412Z,195
2018-09-21T13:50:29.196Z,205
2018-09-21T13:51:28.695Z,255
2018-09-21T13:52:29.471Z,205
2018-09-21T13:53:29.195Z,250
2018-09-21T13:54:28.942Z,300
2018-09-21T13:55:28.622Z,190
2018-09-21T13:56:28.654Z,180
2018-09-21T13:57:29.156Z,370
2018-09-21T13:58:29.164Z,195
2018-09-21T13:59:29.145Z,205
2018-09-21T14:00:29.372Z,295
2018-09-21T14:01:28.821Z,200
2018-09-21T14:02:29.060Z,200
2018-09-21T14:03:28.521Z,250
2018-09-21T14:04:29.038Z,305
2018-09-21T14:05:29.561Z,245
2018-09-21T14:06:28.752Z,310
2018-09-21T14:07:28.996Z,200
2018-09-21T14:08:28.757Z,195
2018-09-21T14:09:28.997Z,280
2018-09-21T14:10:28.712Z,320
2018-09-21T14:11:28.764Z,340
2018-09-21T14:12:28.676Z,230
2018-09-21T14:13:28.941Z,295
2018-09-21T14:14:29.410Z,250
2018-09-21T14:15:28.671Z,350
2018-09-21T14:16:29.196Z,375
2018-09-21T14:17:28.893Z,460
2018-09-21T14:18:28.385Z,580